sensor_id;sensor_type;location;lat;lon;timestamp;P1;durP1;ratioP1;P2;durP2;ratioP2
69588;SDS011;56792;50.644;17.984;2023-09-07T00:01:05;10.10;;;6.80;;
69588;SDS011;56792;50.644;17.984;2023-09-07T00:03:34;11.90;;;6.50;;
69588;SDS011;56792;50.644;17.984;2023-09-07T00:06:07;9.60;;;7.20;;
69588;SDS011;56792;50.644;17.984;2023-09-07T00:08:36;11.50;;;7.10;;
69588;SDS011;56792;50.644;17.984;2023-09-07T00:11:04;11.00;;;7.10;;
69588;SDS011;56792;50.644;17.984;2023-09-07T00:13:33;12.20;;;7.10;;
69588;SDS011;56792;50.644;17.984;2023-09-07T00:16:03;12.20;;;6.90;;
69588;SDS011;56792;50.644;17.984;2023-09-07T00:18:32;9.70;;;7.10;;
69588;SDS011;56792;50.644;17.984;2023-09-07T00:21:01;9.70;;;6.40;;
69588;SDS011;56792;50.644;17.984;2023-09-07T00:23:30;10.60;;;6.60;;
69588;SDS011;56792;50.644;17.984;2023-09-07T00:25:58;9.60;;;7.10;;
69588;SDS011;56792;50.644;17.984;2023-09-07T00:28:26;10.70;;;6.70;;
69588;SDS011;56792;50.644;17.984;2023-09-07T00:30:55;9.50;;;7.20;;
69588;SDS011;56792;50.644;17.984;2023-09-07T00:33:23;10.80;;;6.80;;
69588;SDS011;56792;50.644;17.984;2023-09-07T00:35:51;8.80;;;6.50;;
69588;SDS011;56792;50.644;17.984;2023-09-07T00:38:20;10.90;;;6.80;;
69588;SDS011;56792;50.644;17.984;2023-09-07T00:40:48;9.80;;;6.90;;
69588;SDS011;56792;50.644;17.984;2023-09-07T00:43:17;11.50;;;6.90;;
69588;SDS011;56792;50.644;17.984;2023-09-07T00:45:45;10.00;;;6.80;;
69588;SDS011;56792;50.644;17.984;2023-09-07T00:48:15;9.90;;;6.50;;
69588;SDS011;56792;50.644;17.984;2023-09-07T00:50:44;10.50;;;7.30;;
69588;SDS011;56792;50.644;17.984;2023-09-07T00:53:13;10.30;;;6.30;;
69588;SDS011;56792;50.644;17.984;2023-09-07T00:55:42;11.10;;;7.20;;
69588;SDS011;56792;50.644;17.984;2023-09-07T00:58:11;10.40;;;7.00;;
69588;SDS011;56792;50.644;17.984;2023-09-07T01:00:40;10.70;;;7.40;;
69588;SDS011;56792;50.644;17.984;2023-09-07T01:03:08;13.00;;;7.60;;
69588;SDS011;56792;50.644;17.984;2023-09-07T01:05:43;13.50;;;7.20;;
69588;SDS011;56792;50.644;17.984;2023-09-07T01:08:21;12.30;;;7.30;;
69588;SDS011;56792;50.644;17.984;2023-09-07T01:10:52;10.80;;;6.50;;
69588;SDS011;56792;50.644;17.984;2023-09-07T01:13:21;10.70;;;7.00;;
69588;SDS011;56792;50.644;17.984;2023-09-07T01:15:49;11.40;;;7.70;;
69588;SDS011;56792;50.644;17.984;2023-09-07T01:18:19;9.10;;;6.60;;
69588;SDS011;56792;50.644;17.984;2023-09-07T01:20:47;11.60;;;7.50;;
69588;SDS011;56792;50.644;17.984;2023-09-07T01:23:16;9.50;;;7.00;;
69588;SDS011;56792;50.644;17.984;2023-09-07T01:25:45;10.50;;;7.20;;
69588;SDS011;56792;50.644;17.984;2023-09-07T01:28:14;10.40;;;6.80;;
69588;SDS011;56792;50.644;17.984;2023-09-07T01:30:43;11.60;;;7.60;;
69588;SDS011;56792;50.644;17.984;2023-09-07T01:33:14;9.80;;;6.80;;
69588;SDS011;56792;50.644;17.984;2023-09-07T01:35:42;9.70;;;7.10;;
69588;SDS011;56792;50.644;17.984;2023-09-07T01:38:11;10.70;;;6.60;;
69588;SDS011;56792;50.644;17.984;2023-09-07T01:40:39;11.40;;;7.70;;
69588;SDS011;56792;50.644;17.984;2023-09-07T01:43:07;12.20;;;6.80;;
69588;SDS011;56792;50.644;17.984;2023-09-07T01:45:36;10.50;;;7.30;;
69588;SDS011;56792;50.644;17.984;2023-09-07T01:48:07;12.20;;;7.80;;
69588;SDS011;56792;50.644;17.984;2023-09-07T01:50:36;9.90;;;7.50;;
69588;SDS011;56792;50.644;17.984;2023-09-07T01:53:05;12.10;;;7.40;;
69588;SDS011;56792;50.644;17.984;2023-09-07T01:55:36;9.70;;;7.00;;
69588;SDS011;56792;50.644;17.984;2023-09-07T01:58:05;10.90;;;7.10;;
69588;SDS011;56792;50.644;17.984;2023-09-07T02:00:37;10.00;;;7.60;;
69588;SDS011;56792;50.644;17.984;2023-09-07T02:03:06;10.40;;;7.30;;
69588;SDS011;56792;50.644;17.984;2023-09-07T02:05:34;10.60;;;7.50;;
69588;SDS011;56792;50.644;17.984;2023-09-07T02:08:04;11.80;;;6.90;;
69588;SDS011;56792;50.644;17.984;2023-09-07T02:10:33;13.30;;;7.20;;
69588;SDS011;56792;50.644;17.984;2023-09-07T02:13:02;13.00;;;7.00;;
69588;SDS011;56792;50.644;17.984;2023-09-07T02:15:31;11.50;;;7.50;;
69588;SDS011;56792;50.644;17.984;2023-09-07T02:17:59;11.30;;;6.80;;
69588;SDS011;56792;50.644;17.984;2023-09-07T02:20:30;11.50;;;7.40;;
69588;SDS011;56792;50.644;17.984;2023-09-07T02:22:58;11.00;;;7.00;;
69588;SDS011;56792;50.644;17.984;2023-09-07T02:25:27;11.30;;;7.00;;
69588;SDS011;56792;50.644;17.984;2023-09-07T02:27:57;10.10;;;6.60;;
69588;SDS011;56792;50.644;17.984;2023-09-07T02:30:25;11.30;;;7.10;;
69588;SDS011;56792;50.644;17.984;2023-09-07T02:32:53;11.80;;;6.50;;
69588;SDS011;56792;50.644;17.984;2023-09-07T02:35:22;12.80;;;7.20;;
69588;SDS011;56792;50.644;17.984;2023-09-07T02:37:50;13.20;;;7.60;;
69588;SDS011;56792;50.644;17.984;2023-09-07T02:40:19;12.90;;;7.20;;
69588;SDS011;56792;50.644;17.984;2023-09-07T02:42:47;11.60;;;7.20;;
69588;SDS011;56792;50.644;17.984;2023-09-07T02:45:16;12.00;;;7.80;;
69588;SDS011;56792;50.644;17.984;2023-09-07T02:47:44;11.90;;;6.80;;
69588;SDS011;56792;50.644;17.984;2023-09-07T02:50:14;10.60;;;7.30;;
69588;SDS011;56792;50.644;17.984;2023-09-07T02:52:44;13.00;;;7.00;;
69588;SDS011;56792;50.644;17.984;2023-09-07T02:55:12;11.40;;;7.30;;
69588;SDS011;56792;50.644;17.984;2023-09-07T02:57:41;10.50;;;6.80;;
69588;SDS011;56792;50.644;17.984;2023-09-07T03:00:11;12.80;;;7.60;;
69588;SDS011;56792;50.644;17.984;2023-09-07T03:02:40;14.70;;;7.30;;
69588;SDS011;56792;50.644;17.984;2023-09-07T03:05:09;14.80;;;8.10;;
69588;SDS011;56792;50.644;17.984;2023-09-07T03:07:38;14.10;;;7.40;;
69588;SDS011;56792;50.644;17.984;2023-09-07T03:10:07;12.40;;;7.40;;
69588;SDS011;56792;50.644;17.984;2023-09-07T03:12:36;13.20;;;7.60;;
69588;SDS011;56792;50.644;17.984;2023-09-07T03:15:06;12.80;;;7.10;;
69588;SDS011;56792;50.644;17.984;2023-09-07T03:17:35;12.50;;;6.70;;
69588;SDS011;56792;50.644;17.984;2023-09-07T03:20:05;14.10;;;7.60;;
69588;SDS011;56792;50.644;17.984;2023-09-07T03:22:41;12.60;;;7.70;;
69588;SDS011;56792;50.644;17.984;2023-09-07T03:25:11;11.80;;;7.30;;
69588;SDS011;56792;50.644;17.984;2023-09-07T03:27:49;13.80;;;7.20;;
69588;SDS011;56792;50.644;17.984;2023-09-07T03:30:18;13.50;;;7.20;;
69588;SDS011;56792;50.644;17.984;2023-09-07T03:32:47;15.30;;;7.10;;
69588;SDS011;56792;50.644;17.984;2023-09-07T03:35:15;16.40;;;8.10;;
69588;SDS011;56792;50.644;17.984;2023-09-07T03:37:46;12.70;;;7.20;;
69588;SDS011;56792;50.644;17.984;2023-09-07T03:40:17;13.80;;;7.80;;
69588;SDS011;56792;50.644;17.984;2023-09-07T03:42:45;13.10;;;7.40;;
69588;SDS011;56792;50.644;17.984;2023-09-07T03:45:14;15.10;;;7.20;;
69588;SDS011;56792;50.644;17.984;2023-09-07T03:47:42;13.80;;;6.90;;
69588;SDS011;56792;50.644;17.984;2023-09-07T03:50:12;14.50;;;8.00;;
69588;SDS011;56792;50.644;17.984;2023-09-07T03:52:41;12.50;;;7.60;;
69588;SDS011;56792;50.644;17.984;2023-09-07T03:55:10;16.20;;;8.30;;
69588;SDS011;56792;50.644;17.984;2023-09-07T03:57:39;13.00;;;7.70;;
69588;SDS011;56792;50.644;17.984;2023-09-07T04:00:09;14.30;;;7.30;;
69588;SDS011;56792;50.644;17.984;2023-09-07T04:02:52;13.00;;;7.50;;
69588;SDS011;56792;50.644;17.984;2023-09-07T04:05:23;15.40;;;7.90;;
69588;SDS011;56792;50.644;17.984;2023-09-07T04:07:54;14.30;;;7.90;;
69588;SDS011;56792;50.644;17.984;2023-09-07T04:10:24;14.60;;;8.00;;
69588;SDS011;56792;50.644;17.984;2023-09-07T04:12:52;16.20;;;8.10;;
69588;SDS011;56792;50.644;17.984;2023-09-07T04:15:24;19.40;;;7.70;;
69588;SDS011;56792;50.644;17.984;2023-09-07T04:17:53;14.60;;;8.20;;
69588;SDS011;56792;50.644;17.984;2023-09-07T04:20:22;14.90;;;8.20;;
69588;SDS011;56792;50.644;17.984;2023-09-07T04:22:51;15.30;;;7.40;;
69588;SDS011;56792;50.644;17.984;2023-09-07T04:25:20;13.70;;;7.30;;
69588;SDS011;56792;50.644;17.984;2023-09-07T04:27:50;12.40;;;7.10;;
69588;SDS011;56792;50.644;17.984;2023-09-07T04:30:19;13.00;;;7.60;;
69588;SDS011;56792;50.644;17.984;2023-09-07T04:32:51;13.10;;;7.00;;
69588;SDS011;56792;50.644;17.984;2023-09-07T04:35:26;13.70;;;7.60;;
69588;SDS011;56792;50.644;17.984;2023-09-07T04:38:01;12.60;;;6.90;;
69588;SDS011;56792;50.644;17.984;2023-09-07T04:40:30;14.80;;;7.90;;
69588;SDS011;56792;50.644;17.984;2023-09-07T04:42:58;13.20;;;7.50;;
69588;SDS011;56792;50.644;17.984;2023-09-07T04:45:27;13.00;;;7.60;;
69588;SDS011;56792;50.644;17.984;2023-09-07T04:47:58;13.30;;;8.30;;
69588;SDS011;56792;50.644;17.984;2023-09-07T04:50:29;16.00;;;7.70;;
69588;SDS011;56792;50.644;17.984;2023-09-07T04:52:58;12.10;;;8.90;;
69588;SDS011;56792;50.644;17.984;2023-09-07T04:55:26;13.90;;;9.30;;
69588;SDS011;56792;50.644;17.984;2023-09-07T04:57:55;14.70;;;9.00;;
69588;SDS011;56792;50.644;17.984;2023-09-07T05:00:23;14.40;;;8.60;;
69588;SDS011;56792;50.644;17.984;2023-09-07T05:02:51;14.00;;;8.40;;
69588;SDS011;56792;50.644;17.984;2023-09-07T05:05:20;14.30;;;8.40;;
69588;SDS011;56792;50.644;17.984;2023-09-07T05:07:48;14.10;;;8.60;;
69588;SDS011;56792;50.644;17.984;2023-09-07T05:10:17;12.60;;;8.60;;
69588;SDS011;56792;50.644;17.984;2023-09-07T05:12:46;14.50;;;8.30;;
69588;SDS011;56792;50.644;17.984;2023-09-07T05:15:17;16.00;;;8.60;;
69588;SDS011;56792;50.644;17.984;2023-09-07T05:17:45;14.40;;;8.70;;
69588;SDS011;56792;50.644;17.984;2023-09-07T05:20:18;14.10;;;8.00;;
69588;SDS011;56792;50.644;17.984;2023-09-07T05:22:46;13.20;;;8.20;;
69588;SDS011;56792;50.644;17.984;2023-09-07T05:25:15;15.40;;;8.30;;
69588;SDS011;56792;50.644;17.984;2023-09-07T05:27:48;15.50;;;8.50;;
69588;SDS011;56792;50.644;17.984;2023-09-07T05:30:17;15.10;;;9.10;;
69588;SDS011;56792;50.644;17.984;2023-09-07T05:32:46;12.30;;;7.80;;
69588;SDS011;56792;50.644;17.984;2023-09-07T05:35:15;14.40;;;8.80;;
69588;SDS011;56792;50.644;17.984;2023-09-07T05:37:44;16.40;;;8.50;;
69588;SDS011;56792;50.644;17.984;2023-09-07T05:40:14;11.00;;;7.80;;
69588;SDS011;56792;50.644;17.984;2023-09-07T05:42:43;14.50;;;8.80;;
69588;SDS011;56792;50.644;17.984;2023-09-07T05:45:11;14.40;;;8.40;;
69588;SDS011;56792;50.644;17.984;2023-09-07T05:47:42;14.10;;;8.20;;
69588;SDS011;56792;50.644;17.984;2023-09-07T05:50:13;12.90;;;7.90;;
69588;SDS011;56792;50.644;17.984;2023-09-07T05:52:41;14.00;;;8.10;;
69588;SDS011;56792;50.644;17.984;2023-09-07T05:55:12;11.40;;;8.30;;
69588;SDS011;56792;50.644;17.984;2023-09-07T05:58:05;13.20;;;8.60;;
69588;SDS011;56792;50.644;17.984;2023-09-07T06:00:36;13.10;;;7.60;;
69588;SDS011;56792;50.644;17.984;2023-09-07T06:03:07;13.80;;;7.80;;
69588;SDS011;56792;50.644;17.984;2023-09-07T06:05:37;12.40;;;8.40;;
69588;SDS011;56792;50.644;17.984;2023-09-07T06:08:06;12.40;;;7.90;;
69588;SDS011;56792;50.644;17.984;2023-09-07T06:10:35;13.50;;;7.60;;
69588;SDS011;56792;50.644;17.984;2023-09-07T06:13:04;10.00;;;7.60;;
69588;SDS011;56792;50.644;17.984;2023-09-07T06:15:33;12.40;;;7.40;;
69588;SDS011;56792;50.644;17.984;2023-09-07T06:18:01;11.30;;;6.80;;
69588;SDS011;56792;50.644;17.984;2023-09-07T06:20:30;12.10;;;8.00;;
69588;SDS011;56792;50.644;17.984;2023-09-07T06:23:00;12.30;;;7.80;;
69588;SDS011;56792;50.644;17.984;2023-09-07T06:25:29;11.30;;;7.80;;
69588;SDS011;56792;50.644;17.984;2023-09-07T06:27:57;12.20;;;7.40;;
69588;SDS011;56792;50.644;17.984;2023-09-07T06:30:26;10.30;;;7.70;;
69588;SDS011;56792;50.644;17.984;2023-09-07T06:32:54;13.00;;;7.30;;
69588;SDS011;56792;50.644;17.984;2023-09-07T06:35:25;11.70;;;7.50;;
69588;SDS011;56792;50.644;17.984;2023-09-07T06:37:54;11.00;;;7.40;;
69588;SDS011;56792;50.644;17.984;2023-09-07T06:40:24;11.00;;;7.50;;
69588;SDS011;56792;50.644;17.984;2023-09-07T06:42:55;9.80;;;6.70;;
69588;SDS011;56792;50.644;17.984;2023-09-07T06:45:25;9.30;;;7.00;;
69588;SDS011;56792;50.644;17.984;2023-09-07T06:47:54;10.70;;;7.80;;
69588;SDS011;56792;50.644;17.984;2023-09-07T06:50:24;11.70;;;7.20;;
69588;SDS011;56792;50.644;17.984;2023-09-07T06:52:53;11.50;;;7.30;;
69588;SDS011;56792;50.644;17.984;2023-09-07T06:55:21;11.00;;;7.30;;
69588;SDS011;56792;50.644;17.984;2023-09-07T06:57:50;10.10;;;6.80;;
69588;SDS011;56792;50.644;17.984;2023-09-07T07:00:21;10.40;;;7.80;;
69588;SDS011;56792;50.644;17.984;2023-09-07T07:02:49;10.20;;;6.40;;
69588;SDS011;56792;50.644;17.984;2023-09-07T07:05:19;10.30;;;8.00;;
69588;SDS011;56792;50.644;17.984;2023-09-07T07:07:49;10.70;;;6.80;;
69588;SDS011;56792;50.644;17.984;2023-09-07T07:10:18;10.90;;;7.00;;
69588;SDS011;56792;50.644;17.984;2023-09-07T07:12:46;9.90;;;6.40;;
69588;SDS011;56792;50.644;17.984;2023-09-07T07:15:15;10.20;;;6.80;;
69588;SDS011;56792;50.644;17.984;2023-09-07T07:17:43;10.10;;;7.00;;
69588;SDS011;56792;50.644;17.984;2023-09-07T07:20:12;10.50;;;7.90;;
69588;SDS011;56792;50.644;17.984;2023-09-07T07:22:41;11.70;;;7.20;;
69588;SDS011;56792;50.644;17.984;2023-09-07T07:25:10;10.30;;;7.40;;
69588;SDS011;56792;50.644;17.984;2023-09-07T07:27:38;11.80;;;7.90;;
69588;SDS011;56792;50.644;17.984;2023-09-07T07:30:08;10.80;;;7.20;;
69588;SDS011;56792;50.644;17.984;2023-09-07T07:32:38;11.90;;;7.00;;
69588;SDS011;56792;50.644;17.984;2023-09-07T07:35:07;10.20;;;6.80;;
69588;SDS011;56792;50.644;17.984;2023-09-07T07:37:35;11.70;;;6.90;;
69588;SDS011;56792;50.644;17.984;2023-09-07T07:40:07;11.60;;;6.90;;
69588;SDS011;56792;50.644;17.984;2023-09-07T07:42:37;10.70;;;6.50;;
69588;SDS011;56792;50.644;17.984;2023-09-07T07:45:07;13.40;;;7.10;;
69588;SDS011;56792;50.644;17.984;2023-09-07T07:47:37;12.70;;;7.10;;
69588;SDS011;56792;50.644;17.984;2023-09-07T07:50:07;11.90;;;6.30;;
69588;SDS011;56792;50.644;17.984;2023-09-07T07:52:36;9.70;;;6.40;;
69588;SDS011;56792;50.644;17.984;2023-09-07T07:55:06;8.80;;;6.00;;
69588;SDS011;56792;50.644;17.984;2023-09-07T07:57:35;10.90;;;6.40;;
69588;SDS011;56792;50.644;17.984;2023-09-07T08:00:06;9.20;;;5.90;;
69588;SDS011;56792;50.644;17.984;2023-09-07T08:02:45;9.70;;;5.90;;
69588;SDS011;56792;50.644;17.984;2023-09-07T08:05:13;10.90;;;6.80;;
69588;SDS011;56792;50.644;17.984;2023-09-07T08:07:42;9.60;;;6.40;;
69588;SDS011;56792;50.644;17.984;2023-09-07T08:10:11;10.70;;;6.50;;
69588;SDS011;56792;50.644;17.984;2023-09-07T08:12:39;11.60;;;6.70;;
69588;SDS011;56792;50.644;17.984;2023-09-07T08:15:09;10.10;;;6.50;;
69588;SDS011;56792;50.644;17.984;2023-09-07T08:17:37;8.20;;;5.40;;
69588;SDS011;56792;50.644;17.984;2023-09-07T08:20:07;8.60;;;6.60;;
69588;SDS011;56792;50.644;17.984;2023-09-07T08:22:38;10.30;;;6.30;;
69588;SDS011;56792;50.644;17.984;2023-09-07T08:25:10;8.60;;;6.00;;
69588;SDS011;56792;50.644;17.984;2023-09-07T08:27:40;8.40;;;5.70;;
69588;SDS011;56792;50.644;17.984;2023-09-07T08:30:13;9.50;;;5.80;;
69588;SDS011;56792;50.644;17.984;2023-09-07T08:32:44;8.60;;;5.50;;
69588;SDS011;56792;50.644;17.984;2023-09-07T08:35:13;8.50;;;6.00;;
69588;SDS011;56792;50.644;17.984;2023-09-07T08:37:43;9.10;;;6.40;;
69588;SDS011;56792;50.644;17.984;2023-09-07T08:40:12;9.50;;;6.40;;
69588;SDS011;56792;50.644;17.984;2023-09-07T08:42:43;10.60;;;6.10;;
69588;SDS011;56792;50.644;17.984;2023-09-07T08:45:13;9.40;;;5.90;;
69588;SDS011;56792;50.644;17.984;2023-09-07T08:47:49;9.10;;;5.70;;
69588;SDS011;56792;50.644;17.984;2023-09-07T08:50:19;8.70;;;6.00;;
69588;SDS011;56792;50.644;17.984;2023-09-07T08:52:49;7.30;;;5.80;;
69588;SDS011;56792;50.644;17.984;2023-09-07T08:55:20;9.50;;;6.00;;
69588;SDS011;56792;50.644;17.984;2023-09-07T08:57:49;8.50;;;6.00;;
69588;SDS011;56792;50.644;17.984;2023-09-07T09:00:18;7.70;;;5.30;;
69588;SDS011;56792;50.644;17.984;2023-09-07T09:02:47;8.10;;;6.00;;
69588;SDS011;56792;50.644;17.984;2023-09-07T09:05:16;7.80;;;5.90;;
69588;SDS011;56792;50.644;17.984;2023-09-07T09:07:47;10.50;;;5.70;;
69588;SDS011;56792;50.644;17.984;2023-09-07T09:10:18;8.80;;;6.10;;
69588;SDS011;56792;50.644;17.984;2023-09-07T09:12:47;8.40;;;5.40;;
69588;SDS011;56792;50.644;17.984;2023-09-07T09:15:15;8.30;;;5.60;;
69588;SDS011;56792;50.644;17.984;2023-09-07T09:17:44;8.10;;;5.40;;
69588;SDS011;56792;50.644;17.984;2023-09-07T09:20:22;9.00;;;5.70;;
69588;SDS011;56792;50.644;17.984;2023-09-07T09:22:52;7.30;;;5.60;;
69588;SDS011;56792;50.644;17.984;2023-09-07T09:25:21;7.70;;;5.40;;
69588;SDS011;56792;50.644;17.984;2023-09-07T09:27:50;8.00;;;5.60;;
69588;SDS011;56792;50.644;17.984;2023-09-07T09:30:18;9.30;;;5.90;;
69588;SDS011;56792;50.644;17.984;2023-09-07T09:32:47;6.70;;;4.90;;
69588;SDS011;56792;50.644;17.984;2023-09-07T09:35:17;7.60;;;5.70;;
69588;SDS011;56792;50.644;17.984;2023-09-07T09:37:47;6.90;;;5.20;;
69588;SDS011;56792;50.644;17.984;2023-09-07T09:40:16;5.90;;;5.20;;
69588;SDS011;56792;50.644;17.984;2023-09-07T09:42:45;7.70;;;6.30;;
69588;SDS011;56792;50.644;17.984;2023-09-07T09:45:14;9.80;;;6.00;;
69588;SDS011;56792;50.644;17.984;2023-09-07T09:47:43;7.60;;;6.50;;
69588;SDS011;56792;50.644;17.984;2023-09-07T09:50:11;9.00;;;7.70;;
69588;SDS011;56792;50.644;17.984;2023-09-07T09:52:40;7.00;;;6.30;;
69588;SDS011;56792;50.644;17.984;2023-09-07T09:55:09;8.70;;;7.80;;
69588;SDS011;56792;50.644;17.984;2023-09-07T09:57:39;7.30;;;6.60;;
69588;SDS011;56792;50.644;17.984;2023-09-07T10:00:10;8.30;;;7.50;;
69588;SDS011;56792;50.644;17.984;2023-09-07T10:02:58;8.20;;;7.50;;
69588;SDS011;56792;50.644;17.984;2023-09-07T10:05:30;9.20;;;8.30;;
69588;SDS011;56792;50.644;17.984;2023-09-07T10:08:02;9.40;;;8.60;;
69588;SDS011;56792;50.644;17.984;2023-09-07T10:10:36;8.60;;;7.90;;
69588;SDS011;56792;50.644;17.984;2023-09-07T10:13:06;10.20;;;9.50;;
69588;SDS011;56792;50.644;17.984;2023-09-07T10:15:34;11.50;;;10.30;;
69588;SDS011;56792;50.644;17.984;2023-09-07T10:18:14;10.30;;;9.50;;
69588;SDS011;56792;50.644;17.984;2023-09-07T10:20:51;11.00;;;10.20;;
69588;SDS011;56792;50.644;17.984;2023-09-07T10:23:22;11.20;;;10.30;;
69588;SDS011;56792;50.644;17.984;2023-09-07T10:26:05;12.30;;;11.40;;
69588;SDS011;56792;50.644;17.984;2023-09-07T10:28:38;12.30;;;11.40;;
69588;SDS011;56792;50.644;17.984;2023-09-07T10:31:13;13.50;;;12.60;;
69588;SDS011;56792;50.644;17.984;2023-09-07T10:33:42;13.10;;;12.20;;
69588;SDS011;56792;50.644;17.984;2023-09-07T10:36:21;13.60;;;12.70;;
69588;SDS011;56792;50.644;17.984;2023-09-07T10:38:51;12.60;;;11.80;;
69588;SDS011;56792;50.644;17.984;2023-09-07T10:41:21;14.10;;;13.10;;
69588;SDS011;56792;50.644;17.984;2023-09-07T10:43:51;14.70;;;13.80;;
69588;SDS011;56792;50.644;17.984;2023-09-07T10:46:22;15.10;;;14.00;;
69588;SDS011;56792;50.644;17.984;2023-09-07T10:48:51;14.40;;;13.40;;
69588;SDS011;56792;50.644;17.984;2023-09-07T10:51:20;15.20;;;14.20;;
69588;SDS011;56792;50.644;17.984;2023-09-07T10:53:49;13.70;;;12.90;;
69588;SDS011;56792;50.644;17.984;2023-09-07T10:56:18;15.80;;;14.80;;
69588;SDS011;56792;50.644;17.984;2023-09-07T10:58:46;15.80;;;14.70;;
69588;SDS011;56792;50.644;17.984;2023-09-07T11:01:20;16.00;;;14.70;;
69588;SDS011;56792;50.644;17.984;2023-09-07T11:03:48;15.40;;;14.50;;
69588;SDS011;56792;50.644;17.984;2023-09-07T11:06:18;17.20;;;15.90;;
69588;SDS011;56792;50.644;17.984;2023-09-07T11:08:48;16.00;;;15.00;;
69588;SDS011;56792;50.644;17.984;2023-09-07T11:11:17;16.40;;;15.40;;
69588;SDS011;56792;50.644;17.984;2023-09-07T11:13:45;15.20;;;14.10;;
69588;SDS011;56792;50.644;17.984;2023-09-07T11:16:15;15.90;;;14.90;;
69588;SDS011;56792;50.644;17.984;2023-09-07T11:18:46;15.70;;;14.70;;
69588;SDS011;56792;50.644;17.984;2023-09-07T11:21:15;15.60;;;14.70;;
69588;SDS011;56792;50.644;17.984;2023-09-07T11:23:44;15.60;;;14.60;;
69588;SDS011;56792;50.644;17.984;2023-09-07T11:26:13;16.30;;;15.10;;
69588;SDS011;56792;50.644;17.984;2023-09-07T11:28:46;15.10;;;14.20;;
69588;SDS011;56792;50.644;17.984;2023-09-07T11:31:19;14.80;;;13.70;;
69588;SDS011;56792;50.644;17.984;2023-09-07T11:33:48;15.90;;;14.90;;
69588;SDS011;56792;50.644;17.984;2023-09-07T11:36:16;15.70;;;14.70;;
69588;SDS011;56792;50.644;17.984;2023-09-07T11:38:45;15.80;;;14.70;;
69588;SDS011;56792;50.644;17.984;2023-09-07T11:41:13;15.10;;;14.00;;
69588;SDS011;56792;50.644;17.984;2023-09-07T11:43:42;14.60;;;13.60;;
69588;SDS011;56792;50.644;17.984;2023-09-07T11:46:12;15.40;;;14.40;;
69588;SDS011;56792;50.644;17.984;2023-09-07T11:48:40;15.10;;;14.10;;
69588;SDS011;56792;50.644;17.984;2023-09-07T11:51:08;14.90;;;14.00;;
69588;SDS011;56792;50.644;17.984;2023-09-07T11:53:37;14.60;;;13.70;;
69588;SDS011;56792;50.644;17.984;2023-09-07T11:56:05;15.20;;;14.00;;
69588;SDS011;56792;50.644;17.984;2023-09-07T11:58:33;14.80;;;13.70;;
69588;SDS011;56792;50.644;17.984;2023-09-07T12:01:02;14.30;;;13.30;;
69588;SDS011;56792;50.644;17.984;2023-09-07T12:03:31;13.50;;;12.60;;
69588;SDS011;56792;50.644;17.984;2023-09-07T12:06:00;13.90;;;13.00;;
69588;SDS011;56792;50.644;17.984;2023-09-07T12:08:29;12.70;;;11.90;;
69588;SDS011;56792;50.644;17.984;2023-09-07T12:10:57;13.70;;;12.90;;
69588;SDS011;56792;50.644;17.984;2023-09-07T12:13:26;13.50;;;12.60;;
69588;SDS011;56792;50.644;17.984;2023-09-07T12:15:54;14.20;;;13.20;;
69588;SDS011;56792;50.644;17.984;2023-09-07T12:18:23;13.70;;;12.70;;
69588;SDS011;56792;50.644;17.984;2023-09-07T12:20:51;12.70;;;11.90;;
69588;SDS011;56792;50.644;17.984;2023-09-07T12:23:19;14.50;;;13.40;;
69588;SDS011;56792;50.644;17.984;2023-09-07T12:25:47;13.30;;;12.40;;
69588;SDS011;56792;50.644;17.984;2023-09-07T12:28:17;14.10;;;13.10;;
69588;SDS011;56792;50.644;17.984;2023-09-07T12:30:47;14.40;;;13.10;;
69588;SDS011;56792;50.644;17.984;2023-09-07T12:33:15;13.40;;;12.50;;
69588;SDS011;56792;50.644;17.984;2023-09-07T12:35:44;13.60;;;12.70;;
69588;SDS011;56792;50.644;17.984;2023-09-07T12:38:12;13.40;;;12.50;;
69588;SDS011;56792;50.644;17.984;2023-09-07T12:40:44;13.30;;;12.40;;
69588;SDS011;56792;50.644;17.984;2023-09-07T12:43:12;11.60;;;10.70;;
69588;SDS011;56792;50.644;17.984;2023-09-07T12:45:40;13.00;;;12.20;;
69588;SDS011;56792;50.644;17.984;2023-09-07T12:48:09;13.30;;;12.50;;
69588;SDS011;56792;50.644;17.984;2023-09-07T12:50:37;12.80;;;11.90;;
69588;SDS011;56792;50.644;17.984;2023-09-07T12:53:06;11.60;;;10.80;;
69588;SDS011;56792;50.644;17.984;2023-09-07T12:55:34;12.20;;;11.40;;
69588;SDS011;56792;50.644;17.984;2023-09-07T12:58:03;12.00;;;11.20;;
69588;SDS011;56792;50.644;17.984;2023-09-07T13:00:31;11.80;;;11.00;;
69588;SDS011;56792;50.644;17.984;2023-09-07T13:02:59;12.20;;;11.30;;
69588;SDS011;56792;50.644;17.984;2023-09-07T13:05:29;11.10;;;10.30;;
69588;SDS011;56792;50.644;17.984;2023-09-07T13:07:57;9.80;;;9.10;;
69588;SDS011;56792;50.644;17.984;2023-09-07T13:10:26;11.60;;;10.60;;
69588;SDS011;56792;50.644;17.984;2023-09-07T13:12:55;11.10;;;10.40;;
69588;SDS011;56792;50.644;17.984;2023-09-07T13:15:23;10.90;;;9.90;;
69588;SDS011;56792;50.644;17.984;2023-09-07T13:17:51;11.50;;;10.40;;
69588;SDS011;56792;50.644;17.984;2023-09-07T13:20:20;10.10;;;9.40;;
69588;SDS011;56792;50.644;17.984;2023-09-07T13:22:48;11.30;;;10.30;;
69588;SDS011;56792;50.644;17.984;2023-09-07T13:25:17;10.00;;;9.30;;
69588;SDS011;56792;50.644;17.984;2023-09-07T13:27:45;11.00;;;10.30;;
69588;SDS011;56792;50.644;17.984;2023-09-07T13:30:14;11.00;;;10.20;;
69588;SDS011;56792;50.644;17.984;2023-09-07T13:32:42;10.10;;;9.40;;
69588;SDS011;56792;50.644;17.984;2023-09-07T13:35:13;10.50;;;9.70;;
69588;SDS011;56792;50.644;17.984;2023-09-07T13:37:42;10.40;;;9.70;;
69588;SDS011;56792;50.644;17.984;2023-09-07T13:40:11;10.40;;;9.50;;
69588;SDS011;56792;50.644;17.984;2023-09-07T13:42:42;9.90;;;9.00;;
69588;SDS011;56792;50.644;17.984;2023-09-07T13:45:12;10.00;;;9.20;;
69588;SDS011;56792;50.644;17.984;2023-09-07T13:47:40;9.60;;;8.70;;
69588;SDS011;56792;50.644;17.984;2023-09-07T13:50:09;9.30;;;8.40;;
69588;SDS011;56792;50.644;17.984;2023-09-07T13:52:37;8.50;;;7.60;;
69588;SDS011;56792;50.644;17.984;2023-09-07T13:55:07;8.30;;;7.60;;
69588;SDS011;56792;50.644;17.984;2023-09-07T13:57:36;7.90;;;7.10;;
69588;SDS011;56792;50.644;17.984;2023-09-07T14:00:06;7.80;;;6.90;;
69588;SDS011;56792;50.644;17.984;2023-09-07T14:02:35;7.30;;;6.60;;
69588;SDS011;56792;50.644;17.984;2023-09-07T14:05:04;13.30;;;6.20;;
69588;SDS011;56792;50.644;17.984;2023-09-07T14:07:33;7.80;;;5.50;;
69588;SDS011;56792;50.644;17.984;2023-09-07T14:10:01;7.10;;;6.40;;
69588;SDS011;56792;50.644;17.984;2023-09-07T14:12:30;6.60;;;5.50;;
69588;SDS011;56792;50.644;17.984;2023-09-07T14:14:58;6.80;;;5.00;;
69588;SDS011;56792;50.644;17.984;2023-09-07T14:17:27;5.90;;;5.10;;
69588;SDS011;56792;50.644;17.984;2023-09-07T14:19:55;23.40;;;10.00;;
69588;SDS011;56792;50.644;17.984;2023-09-07T14:22:23;8.40;;;5.20;;
69588;SDS011;56792;50.644;17.984;2023-09-07T14:24:51;8.10;;;6.20;;
69588;SDS011;56792;50.644;17.984;2023-09-07T14:27:20;28.60;;;10.80;;
69588;SDS011;56792;50.644;17.984;2023-09-07T14:29:48;10.60;;;6.70;;
69588;SDS011;56792;50.644;17.984;2023-09-07T14:32:16;6.00;;;5.20;;
69588;SDS011;56792;50.644;17.984;2023-09-07T14:34:45;5.50;;;4.90;;